sensor_id;sensor_type;location;lat;lon;timestamp;temperature;humidity
1221;DHT22;600;48.044;7.878;2022-12-07T01:51:09;7.30;99.90
1221;DHT22;600;48.044;7.878;2022-12-07T01:53:40;7.30;99.90
1221;DHT22;600;48.044;7.878;2022-12-07T01:56:11;7.30;99.90
1221;DHT22;600;48.044;7.878;2022-12-07T01:58:39;7.30;99.90
1221;DHT22;600;48.044;7.878;2022-12-07T02:01:06;7.30;99.90
1221;DHT22;600;48.044;7.878;2022-12-07T02:03:36;7.30;99.90
1221;DHT22;600;48.044;7.878;2022-12-07T02:06:07;7.30;99.90
1221;DHT22;600;48.044;7.878;2022-12-07T02:08:34;7.30;99.90
1221;DHT22;600;48.044;7.878;2022-12-07T02:11:03;7.40;99.90
1221;DHT22;600;48.044;7.878;2022-12-07T02:13:34;7.40;99.90
1221;DHT22;600;48.044;7.878;2022-12-07T02:16:10;7.40;99.90
1221;DHT22;600;48.044;7.878;2022-12-07T02:18:58;7.40;99.90
1221;DHT22;600;48.044;7.878;2022-12-07T02:21:34;7.40;99.90
1221;DHT22;600;48.044;7.878;2022-12-07T02:24:37;7.40;99.90
1221;DHT22;600;48.044;7.878;2022-12-07T02:27:34;7.40;99.90
1221;DHT22;600;48.044;7.878;2022-12-07T02:30:06;7.50;99.90
1221;DHT22;600;48.044;7.878;2022-12-07T02:32:42;7.50;99.90
1221;DHT22;600;48.044;7.878;2022-12-07T02:35:12;7.40;99.90
1221;DHT22;600;48.044;7.878;2022-12-07T02:37:51;7.50;99.90
1221;DHT22;600;48.044;7.878;2022-12-07T02:40:23;7.50;99.90
1221;DHT22;600;48.044;7.878;2022-12-07T02:42:55;7.50;99.90
1221;DHT22;600;48.044;7.878;2022-12-07T02:45:27;7.50;99.90
1221;DHT22;600;48.044;7.878;2022-12-07T02:47:56;7.50;99.90
1221;DHT22;600;48.044;7.878;2022-12-07T02:50:25;7.50;99.90
1221;DHT22;600;48.044;7.878;2022-12-07T02:52:52;7.50;99.90
1221;DHT22;600;48.044;7.878;2022-12-07T02:55:23;7.50;99.90
1221;DHT22;600;48.044;7.878;2022-12-07T02:58:02;7.50;99.90
1221;DHT22;600;48.044;7.878;2022-12-07T03:00:40;7.50;99.90
1221;DHT22;600;48.044;7.878;2022-12-07T03:03:15;7.50;99.90
1221;DHT22;600;48.044;7.878;2022-12-07T03:06:06;7.50;99.90
1221;DHT22;600;48.044;7.878;2022-12-07T03:08:44;7.50;99.90
1221;DHT22;600;48.044;7.878;2022-12-07T03:11:15;7.50;99.90
1221;DHT22;600;48.044;7.878;2022-12-07T03:13:48;7.50;99.90
1221;DHT22;600;48.044;7.878;2022-12-07T03:16:21;7.50;99.90
1221;DHT22;600;48.044;7.878;2022-12-07T03:18:52;7.50;99.90
1221;DHT22;600;48.044;7.878;2022-12-07T03:21:22;7.50;99.90
1221;DHT22;600;48.044;7.878;2022-12-07T03:23:51;7.50;99.90
1221;DHT22;600;48.044;7.878;2022-12-07T03:26:23;7.50;99.90
1221;DHT22;600;48.044;7.878;2022-12-07T03:28:54;7.40;99.90
1221;DHT22;600;48.044;7.878;2022-12-07T03:31:26;7.40;99.90
1221;DHT22;600;48.044;7.878;2022-12-07T03:33:59;7.30;99.90
1221;DHT22;600;48.044;7.878;2022-12-07T03:36:31;7.30;99.90
1221;DHT22;600;48.044;7.878;2022-12-07T03:39:07;7.30;99.90
1221;DHT22;600;48.044;7.878;2022-12-07T03:41:37;7.30;99.90
1221;DHT22;600;48.044;7.878;2022-12-07T03:44:04;7.30;99.90
1221;DHT22;600;48.044;7.878;2022-12-07T03:46:38;7.30;99.90
1221;DHT22;600;48.044;7.878;2022-12-07T03:49:12;7.20;99.90
1221;DHT22;600;48.044;7.878;2022-12-07T03:51:45;7.20;99.90
1221;DHT22;600;48.044;7.878;2022-12-07T03:54:18;7.20;99.90
1221;DHT22;600;48.044;7.878;2022-12-07T03:56:46;7.20;99.90
1221;DHT22;600;48.044;7.878;2022-12-07T03:59:14;7.20;99.90
1221;DHT22;600;48.044;7.878;2022-12-07T04:01:44;7.20;99.90
1221;DHT22;600;48.044;7.878;2022-12-07T04:04:11;7.20;99.90
1221;DHT22;600;48.044;7.878;2022-12-07T04:06:38;7.20;99.90
1221;DHT22;600;48.044;7.878;2022-12-07T04:09:04;7.20;99.90
1221;DHT22;600;48.044;7.878;2022-12-07T04:11:31;7.20;99.90
1221;DHT22;600;48.044;7.878;2022-12-07T04:13:58;7.10;99.90
1221;DHT22;600;48.044;7.878;2022-12-07T04:16:44;7.10;99.90
1221;DHT22;600;48.044;7.878;2022-12-07T04:19:11;7.10;99.90
1221;DHT22;600;48.044;7.878;2022-12-07T04:21:38;7.10;99.90
1221;DHT22;600;48.044;7.878;2022-12-07T04:24:05;7.10;99.90
1221;DHT22;600;48.044;7.878;2022-12-07T04:26:32;7.10;99.90
1221;DHT22;600;48.044;7.878;2022-12-07T04:28:59;7.10;99.90
1221;DHT22;600;48.044;7.878;2022-12-07T04:31:25;7.10;99.90
1221;DHT22;600;48.044;7.878;2022-12-07T04:33:54;7.10;99.90
1221;DHT22;600;48.044;7.878;2022-12-07T04:36:20;7.10;99.90
1221;DHT22;600;48.044;7.878;2022-12-07T04:38:47;7.00;99.90
1221;DHT22;600;48.044;7.878;2022-12-07T04:41:14;7.00;99.90
1221;DHT22;600;48.044;7.878;2022-12-07T04:43:41;6.90;99.90
1221;DHT22;600;48.044;7.878;2022-12-07T04:46:07;6.90;99.90
1221;DHT22;600;48.044;7.878;2022-12-07T04:48:34;6.90;99.90
1221;DHT22;600;48.044;7.878;2022-12-07T04:51:04;6.90;99.90
1221;DHT22;600;48.044;7.878;2022-12-07T04:53:31;6.80;99.90
1221;DHT22;600;48.044;7.878;2022-12-07T04:55:57;6.90;99.90
1221;DHT22;600;48.044;7.878;2022-12-07T04:58:26;6.90;99.90
1221;DHT22;600;48.044;7.878;2022-12-07T05:00:54;6.90;99.90
1221;DHT22;600;48.044;7.878;2022-12-07T05:03:21;6.90;99.90
1221;DHT22;600;48.044;7.878;2022-12-07T05:05:48;6.90;99.90
1221;DHT22;600;48.044;7.878;2022-12-07T05:08:16;6.90;99.90
1221;DHT22;600;48.044;7.878;2022-12-07T05:10:42;6.90;99.90
1221;DHT22;600;48.044;7.878;2022-12-07T05:13:09;6.90;99.90
1221;DHT22;600;48.044;7.878;2022-12-07T05:15:36;6.90;99.90
1221;DHT22;600;48.044;7.878;2022-12-07T05:18:03;6.90;99.90
1221;DHT22;600;48.044;7.878;2022-12-07T05:20:30;6.90;99.90
1221;DHT22;600;48.044;7.878;2022-12-07T05:22:57;6.80;99.90
1221;DHT22;600;48.044;7.878;2022-12-07T05:25:25;6.90;99.90
1221;DHT22;600;48.044;7.878;2022-12-07T05:27:52;6.90;99.90
1221;DHT22;600;48.044;7.878;2022-12-07T05:30:19;6.90;99.90
1221;DHT22;600;48.044;7.878;2022-12-07T05:32:46;6.90;99.90
1221;DHT22;600;48.044;7.878;2022-12-07T05:35:12;6.90;99.90
1221;DHT22;600;48.044;7.878;2022-12-07T05:37:39;7.00;99.90
1221;DHT22;600;48.044;7.878;2022-12-07T05:40:07;6.90;99.90
1221;DHT22;600;48.044;7.878;2022-12-07T05:42:35;7.00;99.90
1221;DHT22;600;48.044;7.878;2022-12-07T05:45:01;7.00;99.90
1221;DHT22;600;48.044;7.878;2022-12-07T05:47:28;7.00;99.90
1221;DHT22;600;48.044;7.878;2022-12-07T05:49:55;7.00;99.90
1221;DHT22;600;48.044;7.878;2022-12-07T05:52:22;6.90;99.90
1221;DHT22;600;48.044;7.878;2022-12-07T05:54:49;6.90;99.90
1221;DHT22;600;48.044;7.878;2022-12-07T05:57:15;6.90;99.90
1221;DHT22;600;48.044;7.878;2022-12-07T05:59:43;6.80;99.90
1221;DHT22;600;48.044;7.878;2022-12-07T06:02:11;6.80;99.90
1221;DHT22;600;48.044;7.878;2022-12-07T06:04:40;6.70;99.90
1221;DHT22;600;48.044;7.878;2022-12-07T06:07:07;6.70;99.90
1221;DHT22;600;48.044;7.878;2022-12-07T06:09:35;6.70;99.90
1221;DHT22;600;48.044;7.878;2022-12-07T06:12:02;6.70;99.90
1221;DHT22;600;48.044;7.878;2022-12-07T06:14:48;6.70;99.90
1221;DHT22;600;48.044;7.878;2022-12-07T06:17:15;6.70;99.90
1221;DHT22;600;48.044;7.878;2022-12-07T06:19:42;6.70;99.90
1221;DHT22;600;48.044;7.878;2022-12-07T06:22:09;6.70;99.90
1221;DHT22;600;48.044;7.878;2022-12-07T06:24:37;6.60;99.90
1221;DHT22;600;48.044;7.878;2022-12-07T06:27:04;6.50;99.90
1221;DHT22;600;48.044;7.878;2022-12-07T06:29:31;6.40;99.90
1221;DHT22;600;48.044;7.878;2022-12-07T06:31:59;6.40;99.90
1221;DHT22;600;48.044;7.878;2022-12-07T06:34:26;6.30;99.90
1221;DHT22;600;48.044;7.878;2022-12-07T06:36:53;6.30;99.90
1221;DHT22;600;48.044;7.878;2022-12-07T06:39:22;6.30;99.90
1221;DHT22;600;48.044;7.878;2022-12-07T06:41:49;6.40;99.90
1221;DHT22;600;48.044;7.878;2022-12-07T06:44:18;6.40;99.90
1221;DHT22;600;48.044;7.878;2022-12-07T06:46:45;6.40;99.90
1221;DHT22;600;48.044;7.878;2022-12-07T06:49:13;6.30;99.90
1221;DHT22;600;48.044;7.878;2022-12-07T06:51:40;6.30;99.90
1221;DHT22;600;48.044;7.878;2022-12-07T06:54:07;6.30;99.90
1221;DHT22;600;48.044;7.878;2022-12-07T06:56:34;6.30;99.90
1221;DHT22;600;48.044;7.878;2022-12-07T06:59:02;6.20;99.90
1221;DHT22;600;48.044;7.878;2022-12-07T07:01:29;6.20;99.90
1221;DHT22;600;48.044;7.878;2022-12-07T07:03:56;6.20;99.90
1221;DHT22;600;48.044;7.878;2022-12-07T07:06:24;6.10;99.90
1221;DHT22;600;48.044;7.878;2022-12-07T07:08:51;6.10;99.90
1221;DHT22;600;48.044;7.878;2022-12-07T07:11:18;6.10;99.90
1221;DHT22;600;48.044;7.878;2022-12-07T07:13:45;6.10;99.90
1221;DHT22;600;48.044;7.878;2022-12-07T07:16:12;6.10;99.90
1221;DHT22;600;48.044;7.878;2022-12-07T07:18:38;6.00;99.90
1221;DHT22;600;48.044;7.878;2022-12-07T07:21:05;6.00;99.90
1221;DHT22;600;48.044;7.878;2022-12-07T07:23:33;6.00;99.90
1221;DHT22;600;48.044;7.878;2022-12-07T07:26:00;5.90;99.90
1221;DHT22;600;48.044;7.878;2022-12-07T07:28:27;5.90;99.90
1221;DHT22;600;48.044;7.878;2022-12-07T07:30:54;5.80;99.90
1221;DHT22;600;48.044;7.878;2022-12-07T07:33:21;5.80;99.90
1221;DHT22;600;48.044;7.878;2022-12-07T07:35:47;5.80;99.90
1221;DHT22;600;48.044;7.878;2022-12-07T07:38:14;5.70;99.90
1221;DHT22;600;48.044;7.878;2022-12-07T07:40:42;5.60;99.90
1221;DHT22;600;48.044;7.878;2022-12-07T07:43:09;5.60;99.90
1221;DHT22;600;48.044;7.878;2022-12-07T07:45:36;5.50;99.90
1221;DHT22;600;48.044;7.878;2022-12-07T07:48:02;5.40;99.90
1221;DHT22;600;48.044;7.878;2022-12-07T07:50:29;5.40;99.90
1221;DHT22;600;48.044;7.878;2022-12-07T07:52:56;5.40;99.90
1221;DHT22;600;48.044;7.878;2022-12-07T07:55:23;5.40;99.90
1221;DHT22;600;48.044;7.878;2022-12-07T07:57:51;5.50;99.90
1221;DHT22;600;48.044;7.878;2022-12-07T08:00:19;5.50;99.90
1221;DHT22;600;48.044;7.878;2022-12-07T08:02:45;5.50;99.90
1221;DHT22;600;48.044;7.878;2022-12-07T08:05:13;5.50;99.90
1221;DHT22;600;48.044;7.878;2022-12-07T08:07:40;5.40;99.90
1221;DHT22;600;48.044;7.878;2022-12-07T08:10:08;5.40;99.90
1221;DHT22;600;48.044;7.878;2022-12-07T08:12:36;5.40;99.90
1221;DHT22;600;48.044;7.878;2022-12-07T08:15:26;5.40;99.90
1221;DHT22;600;48.044;7.878;2022-12-07T08:17:53;5.50;99.90
1221;DHT22;600;48.044;7.878;2022-12-07T08:20:20;5.50;99.90
1221;DHT22;600;48.044;7.878;2022-12-07T08:22:47;5.60;99.90
1221;DHT22;600;48.044;7.878;2022-12-07T08:25:14;5.60;99.90
1221;DHT22;600;48.044;7.878;2022-12-07T08:27:41;5.70;99.90
1221;DHT22;600;48.044;7.878;2022-12-07T08:30:08;5.80;99.90
1221;DHT22;600;48.044;7.878;2022-12-07T08:32:36;5.90;99.90
1221;DHT22;600;48.044;7.878;2022-12-07T08:35:03;6.00;99.90
1221;DHT22;600;48.044;7.878;2022-12-07T08:37:31;6.10;99.90
1221;DHT22;600;48.044;7.878;2022-12-07T08:39:58;6.20;99.90
1221;DHT22;600;48.044;7.878;2022-12-07T08:42:24;6.30;99.90
1221;DHT22;600;48.044;7.878;2022-12-07T08:44:55;6.40;99.90
1221;DHT22;600;48.044;7.878;2022-12-07T08:47:22;6.40;99.90
1221;DHT22;600;48.044;7.878;2022-12-07T08:49:52;6.40;99.90
1221;DHT22;600;48.044;7.878;2022-12-07T08:52:19;6.40;99.90
1221;DHT22;600;48.044;7.878;2022-12-07T08:54:46;6.50;99.90
1221;DHT22;600;48.044;7.878;2022-12-07T08:57:13;6.50;99.90
1221;DHT22;600;48.044;7.878;2022-12-07T08:59:40;6.50;99.90
1221;DHT22;600;48.044;7.878;2022-12-07T09:02:07;6.50;99.90
1221;DHT22;600;48.044;7.878;2022-12-07T09:04:33;6.50;99.90
1221;DHT22;600;48.044;7.878;2022-12-07T09:07:02;6.50;99.90
1221;DHT22;600;48.044;7.878;2022-12-07T09:09:29;6.50;99.90
1221;DHT22;600;48.044;7.878;2022-12-07T09:11:56;6.40;99.90
1221;DHT22;600;48.044;7.878;2022-12-07T09:14:23;6.50;99.90
1221;DHT22;600;48.044;7.878;2022-12-07T09:16:49;6.40;99.90
1221;DHT22;600;48.044;7.878;2022-12-07T09:19:16;6.40;99.90
1221;DHT22;600;48.044;7.878;2022-12-07T09:21:43;6.40;99.90
1221;DHT22;600;48.044;7.878;2022-12-07T09:24:12;6.50;99.90
1221;DHT22;600;48.044;7.878;2022-12-07T09:26:39;6.50;99.90
1221;DHT22;600;48.044;7.878;2022-12-07T09:29:06;6.50;99.90
1221;DHT22;600;48.044;7.878;2022-12-07T09:31:39;6.60;99.90
1221;DHT22;600;48.044;7.878;2022-12-07T09:34:07;6.60;99.90
1221;DHT22;600;48.044;7.878;2022-12-07T09:36:34;6.70;99.90
1221;DHT22;600;48.044;7.878;2022-12-07T09:39:01;6.70;99.90
1221;DHT22;600;48.044;7.878;2022-12-07T09:41:30;6.80;99.90
1221;DHT22;600;48.044;7.878;2022-12-07T09:44:03;6.80;99.90
1221;DHT22;600;48.044;7.878;2022-12-07T09:46:34;6.90;99.90
1221;DHT22;600;48.044;7.878;2022-12-07T09:49:02;6.90;99.90
1221;DHT22;600;48.044;7.878;2022-12-07T09:51:29;6.90;99.90
1221;DHT22;600;48.044;7.878;2022-12-07T09:53:57;7.00;99.90
1221;DHT22;600;48.044;7.878;2022-12-07T09:56:25;7.00;99.90
1221;DHT22;600;48.044;7.878;2022-12-07T09:58:59;7.00;99.90
1221;DHT22;600;48.044;7.878;2022-12-07T10:01:28;7.00;99.90
1221;DHT22;600;48.044;7.878;2022-12-07T10:04:00;7.00;99.90
1221;DHT22;600;48.044;7.878;2022-12-07T10:06:28;7.00;99.90
1221;DHT22;600;48.044;7.878;2022-12-07T10:08:55;7.10;99.90
1221;DHT22;600;48.044;7.878;2022-12-07T10:11:22;7.10;99.90
1221;DHT22;600;48.044;7.878;2022-12-07T10:13:51;7.10;99.90
1221;DHT22;600;48.044;7.878;2022-12-07T10:16:41;7.20;99.90
1221;DHT22;600;48.044;7.878;2022-12-07T10:19:23;7.20;99.90
1221;DHT22;600;48.044;7.878;2022-12-07T10:22:04;7.30;99.90
1221;DHT22;600;48.044;7.878;2022-12-07T10:24:32;7.30;99.90
1221;DHT22;600;48.044;7.878;2022-12-07T10:26:59;7.30;99.90
1221;DHT22;600;48.044;7.878;2022-12-07T10:29:29;7.40;99.90
1221;DHT22;600;48.044;7.878;2022-12-07T10:32:00;7.40;99.90
1221;DHT22;600;48.044;7.878;2022-12-07T10:34:28;7.50;99.90
1221;DHT22;600;48.044;7.878;2022-12-07T10:37:14;7.60;99.90
1221;DHT22;600;48.044;7.878;2022-12-07T10:39:42;7.60;99.90
1221;DHT22;600;48.044;7.878;2022-12-07T10:42:17;7.70;99.90
1221;DHT22;600;48.044;7.878;2022-12-07T10:44:44;7.80;99.90
1221;DHT22;600;48.044;7.878;2022-12-07T10:47:25;7.80;99.90
1221;DHT22;600;48.044;7.878;2022-12-07T10:53:19;8.00;99.90
1221;DHT22;600;48.044;7.878;2022-12-07T10:56:01;8.10;99.90
1221;DHT22;600;48.044;7.878;2022-12-07T10:58:49;8.20;99.90
1221;DHT22;600;48.044;7.878;2022-12-07T11:01:24;8.20;99.90
1221;DHT22;600;48.044;7.878;2022-12-07T11:04:08;8.30;99.90
1221;DHT22;600;48.044;7.878;2022-12-07T11:06:46;8.40;99.90
1221;DHT22;600;48.044;7.878;2022-12-07T11:09:32;8.50;99.90
1221;DHT22;600;48.044;7.878;2022-12-07T11:12:08;8.50;99.90
1221;DHT22;600;48.044;7.878;2022-12-07T11:14:44;8.60;99.90
1221;DHT22;600;48.044;7.878;2022-12-07T11:17:19;8.70;99.90
1221;DHT22;600;48.044;7.878;2022-12-07T11:19:59;8.70;99.90
1221;DHT22;600;48.044;7.878;2022-12-07T11:22:35;8.80;99.90
1221;DHT22;600;48.044;7.878;2022-12-07T11:25:18;8.80;99.90
1221;DHT22;600;48.044;7.878;2022-12-07T11:28:04;8.90;99.90
1221;DHT22;600;48.044;7.878;2022-12-07T11:30:37;9.00;99.90
1221;DHT22;600;48.044;7.878;2022-12-07T11:33:15;9.00;99.90
1221;DHT22;600;48.044;7.878;2022-12-07T11:35:54;9.10;99.90
1221;DHT22;600;48.044;7.878;2022-12-07T11:38:33;9.10;99.90
1221;DHT22;600;48.044;7.878;2022-12-07T11:41:05;9.00;99.90
1221;DHT22;600;48.044;7.878;2022-12-07T11:43:50;8.90;99.90
1221;DHT22;600;48.044;7.878;2022-12-07T11:46:20;8.90;99.90
1221;DHT22;600;48.044;7.878;2022-12-07T11:48:54;8.90;99.90
1221;DHT22;600;48.044;7.878;2022-12-07T11:51:24;8.90;99.90
1221;DHT22;600;48.044;7.878;2022-12-07T11:53:54;8.90;99.90
1221;DHT22;600;48.044;7.878;2022-12-07T11:56:26;9.00;99.90
1221;DHT22;600;48.044;7.878;2022-12-07T11:58:56;9.10;99.90
1221;DHT22;600;48.044;7.878;2022-12-07T12:01:39;9.20;99.90
1221;DHT22;600;48.044;7.878;2022-12-07T12:04:23;9.30;99.90
1221;DHT22;600;48.044;7.878;2022-12-07T12:06:53;9.30;99.90
1221;DHT22;600;48.044;7.878;2022-12-07T12:09:25;9.30;99.90
1221;DHT22;600;48.044;7.878;2022-12-07T12:12:04;9.30;99.90
1221;DHT22;600;48.044;7.878;2022-12-07T12:14:44;9.30;99.90
1221;DHT22;600;48.044;7.878;2022-12-07T12:20:29;9.20;99.90
1221;DHT22;600;48.044;7.878;2022-12-07T12:23:05;9.20;99.90
1221;DHT22;600;48.044;7.878;2022-12-07T12:25:38;9.20;99.90
1221;DHT22;600;48.044;7.878;2022-12-07T12:28:06;9.10;99.90
1221;DHT22;600;48.044;7.878;2022-12-07T12:30:45;9.20;99.90
1221;DHT22;600;48.044;7.878;2022-12-07T12:33:31;9.20;99.90
1221;DHT22;600;48.044;7.878;2022-12-07T12:36:17;9.20;99.90
1221;DHT22;600;48.044;7.878;2022-12-07T12:38:50;9.20;99.90
1221;DHT22;600;48.044;7.878;2022-12-07T12:41:52;9.20;99.90
1221;DHT22;600;48.044;7.878;2022-12-07T12:50:32;9.10;99.90
1221;DHT22;600;48.044;7.878;2022-12-07T12:53:03;9.10;99.90
1221;DHT22;600;48.044;7.878;2022-12-07T12:56:10;9.10;99.90
1221;DHT22;600;48.044;7.878;2022-12-07T12:58:41;9.20;99.90
1221;DHT22;600;48.044;7.878;2022-12-07T13:01:38;9.20;99.90
1221;DHT22;600;48.044;7.878;2022-12-07T13:04:36;9.20;99.90
1221;DHT22;600;48.044;7.878;2022-12-07T13:07:04;9.30;99.90
1221;DHT22;600;48.044;7.878;2022-12-07T13:09:33;9.30;99.90
1221;DHT22;600;48.044;7.878;2022-12-07T13:12:05;9.30;99.90
1221;DHT22;600;48.044;7.878;2022-12-07T13:14:43;9.30;99.90
1221;DHT22;600;48.044;7.878;2022-12-07T13:20:56;9.30;99.90
1221;DHT22;600;48.044;7.878;2022-12-07T13:23:28;9.30;99.90
1221;DHT22;600;48.044;7.878;2022-12-07T13:26:05;9.30;99.90
1221;DHT22;600;48.044;7.878;2022-12-07T13:28:39;9.30;99.90
1221;DHT22;600;48.044;7.878;2022-12-07T13:31:30;9.40;99.90
1221;DHT22;600;48.044;7.878;2022-12-07T13:33:58;9.30;99.90
1221;DHT22;600;48.044;7.878;2022-12-07T13:36:26;9.30;99.90
1221;DHT22;600;48.044;7.878;2022-12-07T13:38:56;9.30;99.90
1221;DHT22;600;48.044;7.878;2022-12-07T13:41:24;9.30;99.90
1221;DHT22;600;48.044;7.878;2022-12-07T13:44:00;9.30;99.90
1221;DHT22;600;48.044;7.878;2022-12-07T13:46:41;9.30;99.90
1221;DHT22;600;48.044;7.878;2022-12-07T13:49:20;9.40;99.90
1221;DHT22;600;48.044;7.878;2022-12-07T13:51:47;9.30;99.90
1221;DHT22;600;48.044;7.878;2022-12-07T13:54:14;9.30;99.90
1221;DHT22;600;48.044;7.878;2022-12-07T13:56:42;9.30;99.90
1221;DHT22;600;48.044;7.878;2022-12-07T13:59:14;9.30;99.90
1221;DHT22;600;48.044;7.878;2022-12-07T14:01:41;9.20;99.90
1221;DHT22;600;48.044;7.878;2022-12-07T14:04:24;9.20;99.90
1221;DHT22;600;48.044;7.878;2022-12-07T14:06:54;9.20;99.90
1221;DHT22;600;48.044;7.878;2022-12-07T14:09:22;9.20;99.90
1221;DHT22;600;48.044;7.878;2022-12-07T14:11:51;9.20;99.90
1221;DHT22;600;48.044;7.878;2022-12-07T14:14:22;9.20;99.90
1221;DHT22;600;48.044;7.878;2022-12-07T14:16:57;9.20;99.90
1221;DHT22;600;48.044;7.878;2022-12-07T14:19:54;9.10;99.90
1221;DHT22;600;48.044;7.878;2022-12-07T14:22:25;9.10;99.90
1221;DHT22;600;48.044;7.878;2022-12-07T14:25:13;9.10;99.90
1221;DHT22;600;48.044;7.878;2022-12-07T14:27:49;9.10;99.90
1221;DHT22;600;48.044;7.878;2022-12-07T14:30:18;9.10;99.90
1221;DHT22;600;48.044;7.878;2022-12-07T14:32:53;9.00;99.90
1221;DHT22;600;48.044;7.878;2022-12-07T14:35:20;9.00;99.90
1221;DHT22;600;48.044;7.878;2022-12-07T14:37:48;9.10;99.90
1221;DHT22;600;48.044;7.878;2022-12-07T14:40:17;9.00;99.90
1221;DHT22;600;48.044;7.878;2022-12-07T14:42:45;9.00;99.90
1221;DHT22;600;48.044;7.878;2022-12-07T14:45:15;9.00;99.90
1221;DHT22;600;48.044;7.878;2022-12-07T14:47:44;9.00;99.90
1221;DHT22;600;48.044;7.878;2022-12-07T14:50:12;8.70;99.90
1221;DHT22;600;48.044;7.878;2022-12-07T14:52:40;8.60;99.90
1221;DHT22;600;48.044;7.878;2022-12-07T14:55:13;8.70;99.90
1221;DHT22;600;48.044;7.878;2022-12-07T14:57:41;8.70;99.90
1221;DHT22;600;48.044;7.878;2022-12-07T15:00:10;8.80;99.90
1221;DHT22;600;48.044;7.878;2022-12-07T15:02:39;8.80;99.90
1221;DHT22;600;48.044;7.878;2022-12-07T15:05:08;8.90;99.90
1221;DHT22;600;48.044;7.878;2022-12-07T15:07:35;8.80;99.90
1221;DHT22;600;48.044;7.878;2022-12-07T15:10:03;8.90;99.90
1221;DHT22;600;48.044;7.878;2022-12-07T15:12:30;8.90;99.90
1221;DHT22;600;48.044;7.878;2022-12-07T15:14:56;8.90;99.90
1221;DHT22;600;48.044;7.878;2022-12-07T15:17:23;8.90;99.90
1221;DHT22;600;48.044;7.878;2022-12-07T15:19:50;8.90;99.90
1221;DHT22;600;48.044;7.878;2022-12-07T15:22:18;8.90;99.90
1221;DHT22;600;48.044;7.878;2022-12-07T15:24:45;8.90;99.90
1221;DHT22;600;48.044;7.878;2022-12-07T15:27:11;8.90;99.90
1221;DHT22;600;48.044;7.878;2022-12-07T15:29:38;8.80;99.90
1221;DHT22;600;48.044;7.878;2022-12-07T15:32:05;8.80;99.90
1221;DHT22;600;48.044;7.878;2022-12-07T15:34:32;8.80;99.90
1221;DHT22;600;48.044;7.878;2022-12-07T15:36:59;8.80;99.90
1221;DHT22;600;48.044;7.878;2022-12-07T15:39:27;8.80;99.90
1221;DHT22;600;48.044;7.878;2022-12-07T15:41:54;8.70;99.90
1221;DHT22;600;48.044;7.878;2022-12-07T15:44:21;8.70;99.90
1221;DHT22;600;48.044;7.878;2022-12-07T15:47:05;8.60;99.90
1221;DHT22;600;48.044;7.878;2022-12-07T15:49:31;8.60;99.90
1221;DHT22;600;48.044;7.878;2022-12-07T15:51:58;8.50;99.90
1221;DHT22;600;48.044;7.878;2022-12-07T15:54:28;8.50;99.90
1221;DHT22;600;48.044;7.878;2022-12-07T15:56:55;8.40;99.90
1221;DHT22;600;48.044;7.878;2022-12-07T15:59:23;8.40;99.90
1221;DHT22;600;48.044;7.878;2022-12-07T16:01:50;8.30;99.90
1221;DHT22;600;48.044;7.878;2022-12-07T16:04:17;8.20;99.90
1221;DHT22;600;48.044;7.878;2022-12-07T16:06:44;8.20;99.90
1221;DHT22;600;48.044;7.878;2022-12-07T16:09:10;8.10;99.90
1221;DHT22;600;48.044;7.878;2022-12-07T16:11:38;8.00;99.90
1221;DHT22;600;48.044;7.878;2022-12-07T16:14:05;8.00;99.90
1221;DHT22;600;48.044;7.878;2022-12-07T16:16:32;8.00;99.90
1221;DHT22;600;48.044;7.878;2022-12-07T16:18:59;7.90;99.90
1221;DHT22;600;48.044;7.878;2022-12-07T16:21:25;7.80;99.90
1221;DHT22;600;48.044;7.878;2022-12-07T16:23:52;7.80;99.90
1221;DHT22;600;48.044;7.878;2022-12-07T16:26:20;7.80;99.90
1221;DHT22;600;48.044;7.878;2022-12-07T16:28:50;7.70;99.90
1221;DHT22;600;48.044;7.878;2022-12-07T16:31:18;7.70;99.90
1221;DHT22;600;48.044;7.878;2022-12-07T16:33:46;7.60;99.90
1221;DHT22;600;48.044;7.878;2022-12-07T16:36:14;7.60;99.90
1221;DHT22;600;48.044;7.878;2022-12-07T16:38:42;7.50;99.90
1221;DHT22;600;48.044;7.878;2022-12-07T16:41:09;7.50;99.90
1221;DHT22;600;48.044;7.878;2022-12-07T16:43:36;7.50;99.90
1221;DHT22;600;48.044;7.878;2022-12-07T16:46:05;7.40;99.90
1221;DHT22;600;48.044;7.878;2022-12-07T16:48:36;7.40;99.90
1221;DHT22;600;48.044;7.878;2022-12-07T16:51:04;7.30;99.90
1221;DHT22;600;48.044;7.878;2022-12-07T16:53:31;7.20;99.90
1221;DHT22;600;48.044;7.878;2022-12-07T16:55:58;7.20;99.90
1221;DHT22;600;48.044;7.878;2022-12-07T16:58:25;7.20;99.90
1221;DHT22;600;48.044;7.878;2022-12-07T17:00:51;7.20;99.90
1221;DHT22;600;48.044;7.878;2022-12-07T17:03:19;7.10;99.90
1221;DHT22;600;48.044;7.878;2022-12-07T17:05:47;7.10;99.90
1221;DHT22;600;48.044;7.878;2022-12-07T17:08:14;7.00;99.90
1221;DHT22;600;48.044;7.878;2022-12-07T17:10:43;7.00;99.90
1221;DHT22;600;48.044;7.878;2022-12-07T17:13:11;7.00;99.90
1221;DHT22;600;48.044;7.878;2022-12-07T17:15:57;6.90;99.90
1221;DHT22;600;48.044;7.878;2022-12-07T17:18:27;6.90;99.90
1221;DHT22;600;48.044;7.878;2022-12-07T17:20:53;6.80;99.90
1221;DHT22;600;48.044;7.878;2022-12-07T17:23:20;6.80;99.90
1221;DHT22;600;48.044;7.878;2022-12-07T17:25:47;6.90;99.90
1221;DHT22;600;48.044;7.878;2022-12-07T17:28:14;6.80;99.90
1221;DHT22;600;48.044;7.878;2022-12-07T17:30:41;6.80;99.90
1221;DHT22;600;48.044;7.878;2022-12-07T17:33:07;6.80;99.90
1221;DHT22;600;48.044;7.878;2022-12-07T17:35:36;6.70;99.90
1221;DHT22;600;48.044;7.878;2022-12-07T17:38:02;6.70;99.90
1221;DHT22;600;48.044;7.878;2022-12-07T17:40:29;6.70;99.90
1221;DHT22;600;48.044;7.878;2022-12-07T17:42:56;6.60;99.90
1221;DHT22;600;48.044;7.878;2022-12-07T17:45:24;6.60;99.90
1221;DHT22;600;48.044;7.878;2022-12-07T17:47:51;6.50;99.90
1221;DHT22;600;48.044;7.878;2022-12-07T17:50:18;6.50;99.90
1221;DHT22;600;48.044;7.878;2022-12-07T17:53:09;6.50;99.90
1221;DHT22;600;48.044;7.878;2022-12-07T17:55:35;6.40;99.90
1221;DHT22;600;48.044;7.878;2022-12-07T17:58:02;6.40;99.90
1221;DHT22;600;48.044;7.878;2022-12-07T18:00:28;6.30;99.90
1221;DHT22;600;48.044;7.878;2022-12-07T18:02:55;6.20;99.90
1221;DHT22;600;48.044;7.878;2022-12-07T18:05:22;6.20;99.90
1221;DHT22;600;48.044;7.878;2022-12-07T18:07:49;6.10;99.90
1221;DHT22;600;48.044;7.878;2022-12-07T18:10:18;6.10;99.90
1221;DHT22;600;48.044;7.878;2022-12-07T18:12:45;6.00;99.90
1221;DHT22;600;48.044;7.878;2022-12-07T18:15:12;6.00;99.90
1221;DHT22;600;48.044;7.878;2022-12-07T18:17:38;5.90;99.90
1221;DHT22;600;48.044;7.878;2022-12-07T18:20:07;6.00;99.90
1221;DHT22;600;48.044;7.878;2022-12-07T18:22:34;5.80;99.90
1221;DHT22;600;48.044;7.878;2022-12-07T18:25:02;5.90;99.90
1221;DHT22;600;48.044;7.878;2022-12-07T18:27:30;5.90;99.90
1221;DHT22;600;48.044;7.878;2022-12-07T18:29:57;5.90;99.90
1221;DHT22;600;48.044;7.878;2022-12-07T18:32:24;6.00;99.90
1221;DHT22;600;48.044;7.878;2022-12-07T18:34:50;5.90;99.90
1221;DHT22;600;48.044;7.878;2022-12-07T18:37:18;5.90;99.90
1221;DHT22;600;48.044;7.878;2022-12-07T18:39:45;5.90;99.90
1221;DHT22;600;48.044;7.878;2022-12-07T18:42:12;5.90;99.90
1221;DHT22;600;48.044;7.878;2022-12-07T18:44:40;5.90;99.90
1221;DHT22;600;48.044;7.878;2022-12-07T18:47:06;5.90;99.90
1221;DHT22;600;48.044;7.878;2022-12-07T18:49:33;5.90;99.90
1221;DHT22;600;48.044;7.878;2022-12-07T18:52:00;6.00;99.90
1221;DHT22;600;48.044;7.878;2022-12-07T18:54:26;6.00;99.90
1221;DHT22;600;48.044;7.878;2022-12-07T18:56:53;6.00;99.90
1221;DHT22;600;48.044;7.878;2022-12-07T18:59:21;5.90;99.90
1221;DHT22;600;48.044;7.878;2022-12-07T19:02:06;5.80;99.90